Time;durP1;ratioP1;P1;durP2;ratioP2;P2;SDS_P1;SDS_P2;PMS_P1;PMS_P2;Temp;Humidity;BMP_temperature;BMP_pressure;BME280_temperature;BME280_humidity;BME280_pressure;Samples;Min_cycle;Max_cycle;Signal;HPM_P1;HPM_P2
2023/02/05 00:00:45;;;;;;;70.50;9.85;;;;;;;;;;5062586;28;20033;-32
2023/02/05 00:03:12;;;;;;;82.22;10.65;;;;;;;;;;5058692;28;20115;-32
2023/02/05 00:05:39;;;;;;;80.70;10.98;;;;;;;;;;5062085;28;20032;-33
2023/02/05 00:08:06;;;;;;;82.40;10.70;;;;;;;;;;5062563;28;20695;-33
2023/02/05 00:10:33;;;;;;;79.90;10.80;;;;;;;;;;5061770;28;20029;-33
2023/02/05 00:13:00;;;;;;;94.10;10.07;;;;;;;;;;5069125;28;20028;-33
2023/02/05 00:15:27;;;;;;;91.05;10.75;;;;;;;;;;5062157;28;20103;-32
2023/02/05 00:17:54;;;;;;;90.30;10.98;;;;;;;;;;5059064;28;20479;-32
2023/02/05 00:20:21;;;;;;;93.70;10.75;;;;;;;;;;5058724;28;20740;-33
2023/02/05 00:22:48;;;;;;;100.82;11.45;;;;;;;;;;5062822;28;20025;-32
2023/02/05 00:25:15;;;;;;;120.20;13.43;;;;;;;;;;5054257;28;20544;-32
2023/02/05 00:27:42;;;;;;;133.40;15.45;;;;;;;;;;5067447;28;20032;-32
2023/02/05 00:30:09;;;;;;;97.03;12.40;;;;;;;;;;5070622;28;20036;-32
2023/02/05 00:32:36;;;;;;;146.23;16.58;;;;;;;;;;5070719;28;20036;-33
2023/02/05 00:35:04;;;;;;;136.75;16.48;;;;;;;;;;5070739;28;20028;-32
2023/02/05 00:37:31;;;;;;;136.43;16.02;;;;;;;;;;5070482;28;20031;-33
2023/02/05 00:39:58;;;;;;;140.48;16.23;;;;;;;;;;5070873;28;20028;-32
2023/02/05 00:42:25;;;;;;;186.15;20.55;;;;;;;;;;5070592;28;20082;-32
2023/02/05 00:44:52;;;;;;;128.35;16.52;;;;;;;;;;5067258;28;20107;-33
2023/02/05 00:47:19;;;;;;;124.68;16.08;;;;;;;;;;5071189;28;20530;-33
2023/02/05 00:49:46;;;;;;;138.80;16.30;;;;;;;;;;5069851;28;20036;-33
2023/02/05 00:52:13;;;;;;;120.40;15.65;;;;;;;;;;5071012;28;20028;-33
2023/02/05 00:54:40;;;;;;;114.03;15.63;;;;;;;;;;5066448;28;20570;-33
2023/02/05 00:57:07;;;;;;;82.85;13.85;;;;;;;;;;5067710;28;20024;-32
2023/02/05 00:59:34;;;;;;;97.55;14.18;;;;;;;;;;5068551;28;20029;-32
2023/02/05 01:02:01;;;;;;;103.45;15.90;;;;;;;;;;5068491;28;20025;-33
2023/02/05 01:04:28;;;;;;;76.05;13.63;;;;;;;;;;5068415;28;20077;-34
2023/02/05 01:06:55;;;;;;;77.55;13.30;;;;;;;;;;5066714;28;20029;-32
2023/02/05 01:09:22;;;;;;;86.20;12.68;;;;;;;;;;5069110;28;20055;-33
2023/02/05 01:11:49;;;;;;;119.68;14.63;;;;;;;;;;5068066;28;20040;-32
2023/02/05 01:14:16;;;;;;;141.60;18.52;;;;;;;;;;5057601;28;20364;-33
2023/02/05 01:16:43;;;;;;;117.75;15.70;;;;;;;;;;5057163;28;20044;-33
2023/02/05 01:19:10;;;;;;;100.97;13.10;;;;;;;;;;5057884;28;20120;-32
2023/02/05 01:21:37;;;;;;;86.22;11.30;;;;;;;;;;5064693;28;20040;-33
2023/02/05 01:24:05;;;;;;;85.53;12.75;;;;;;;;;;5060422;28;20059;-33
2023/02/05 01:26:31;;;;;;;81.43;11.98;;;;;;;;;;5058718;28;20021;-33
2023/02/05 01:28:58;;;;;;;79.30;12.65;;;;;;;;;;5052295;28;20029;-33
2023/02/05 01:31:28;;;;;;;113.55;13.77;;;;;;;;;;5056790;28;20111;-33
2023/02/05 01:33:55;;;;;;;87.63;12.38;;;;;;;;;;5070343;28;20511;-33
2023/02/05 01:36:22;;;;;;;92.88;10.48;;;;;;;;;;5056895;28;20025;-34
2023/02/05 01:38:51;;;;;;;63.70;7.18;;;;;;;;;;5051054;28;20024;-33
2023/02/05 01:41:18;;;;;;;48.10;6.15;;;;;;;;;;5049551;28;20033;-33
2023/02/05 01:44:05;;;;;;;58.15;6.57;;;;;;;;;;5049272;28;20044;-33
2023/02/05 01:46:32;;;;;;;37.13;5.50;;;;;;;;;;5050695;28;20028;-33
2023/02/05 01:49:00;;;;;;;35.53;4.40;;;;;;;;;;5056490;28;20038;-35
2023/02/05 01:51:28;;;;;;;45.70;4.93;;;;;;;;;;5066549;28;20035;-33
2023/02/05 01:53:55;;;;;;;39.92;5.43;;;;;;;;;;5059005;28;20009;-34
2023/02/05 01:56:25;;;;;;;33.90;5.20;;;;;;;;;;5067288;28;20032;-33
2023/02/05 01:59:10;;;;;;;29.38;4.43;;;;;;;;;;5069736;28;20150;-34
2023/02/05 02:01:39;;;;;;;32.90;4.47;;;;;;;;;;5070547;28;20026;-34
2023/02/05 02:04:07;;;;;;;37.78;5.55;;;;;;;;;;5070203;28;20025;-34
2023/02/05 02:06:34;;;;;;;40.17;7.57;;;;;;;;;;5057925;28;20497;-34
2023/02/05 02:09:02;;;;;;;41.60;7.07;;;;;;;;;;5069526;28;20032;-33
2023/02/05 02:11:31;;;;;;;54.97;7.80;;;;;;;;;;5053432;28;20059;-34
2023/02/05 02:13:59;;;;;;;35.55;6.82;;;;;;;;;;5054176;28;20094;-34
2023/02/05 02:16:27;;;;;;;29.85;6.38;;;;;;;;;;5050389;28;20035;-34
2023/02/05 02:18:54;;;;;;;35.42;6.97;;;;;;;;;;5053117;28;20040;-34
2023/02/05 02:21:28;;;;;;;33.15;5.53;;;;;;;;;;5054450;28;20033;-36
2023/02/05 02:24:16;;;;;;;47.30;5.97;;;;;;;;;;5061010;28;20052;-35
2023/02/05 02:27:01;;;;;;;45.72;6.30;;;;;;;;;;5068864;28;20152;-31
2023/02/05 02:29:42;;;;;;;51.95;6.40;;;;;;;;;;5070551;28;20072;-31
2023/02/05 02:32:19;;;;;;;62.53;7.22;;;;;;;;;;5070416;28;20162;-31
2023/02/05 02:34:49;;;;;;;60.28;6.60;;;;;;;;;;5067603;28;20056;-29
2023/02/05 02:37:24;;;;;;;46.45;5.10;;;;;;;;;;5069103;28;20024;-30
2023/02/05 02:39:51;;;;;;;33.30;4.18;;;;;;;;;;5070427;28;20028;-29
2023/02/05 02:42:24;;;;;;;30.30;4.53;;;;;;;;;;5070328;28;20032;-30
2023/02/05 02:44:51;;;;;;;28.67;4.20;;;;;;;;;;5070197;28;20482;-29
2023/02/05 02:47:22;;;;;;;36.58;4.50;;;;;;;;;;5070325;28;20031;-29
2023/02/05 02:50:11;;;;;;;25.48;4.20;;;;;;;;;;5070337;28;20028;-29
2023/02/05 02:52:40;;;;;;;63.17;5.47;;;;;;;;;;5070076;28;20390;-29
2023/02/05 02:55:10;;;;;;;65.82;6.47;;;;;;;;;;5070309;28;20113;-29
2023/02/05 02:57:39;;;;;;;44.20;5.00;;;;;;;;;;5070042;28;20025;-29
2023/02/05 03:00:10;;;;;;;41.50;4.50;;;;;;;;;;5070167;28;20513;-29
2023/02/05 03:02:39;;;;;;;59.67;4.80;;;;;;;;;;5068640;28;20163;-29
2023/02/05 03:05:08;;;;;;;29.67;3.33;;;;;;;;;;5070193;28;20029;-30
2023/02/05 03:07:43;;;;;;;20.50;2.80;;;;;;;;;;5070323;28;20033;-29
2023/02/05 03:10:33;;;;;;;26.48;2.55;;;;;;;;;;5068549;28;20031;-29
2023/02/05 03:13:00;;;;;;;29.25;3.97;;;;;;;;;;5032789;28;20048;-29
2023/02/05 03:15:27;;;;;;;51.47;5.40;;;;;;;;;;5069974;28;20502;-29
2023/02/05 03:17:55;;;;;;;52.42;5.15;;;;;;;;;;5068452;28;20029;-29
2023/02/05 03:20:27;;;;;;;74.97;5.35;;;;;;;;;;5068665;28;20048;-29
2023/02/05 03:22:55;;;;;;;27.88;3.80;;;;;;;;;;5059771;28;20056;-29
2023/02/05 03:25:23;;;;;;;31.48;4.25;;;;;;;;;;5049224;28;20044;-29
2023/02/05 03:27:52;;;;;;;30.65;3.33;;;;;;;;;;5047950;28;20048;-29
2023/02/05 03:30:23;;;;;;;32.15;3.15;;;;;;;;;;5048297;28;20033;-30
2023/02/05 03:33:07;;;;;;;23.25;2.63;;;;;;;;;;5049845;28;20028;-29
2023/02/05 03:35:42;;;;;;;46.22;4.32;;;;;;;;;;5049615;28;20044;-30
2023/02/05 03:38:15;;;;;;;33.88;4.18;;;;;;;;;;5050417;28;20047;-30
2023/02/05 03:41:08;;;;;;;23.65;2.47;;;;;;;;;;5052622;28;20033;-30
2023/02/05 03:43:38;;;;;;;16.13;2.47;;;;;;;;;;5052607;28;20044;-30
2023/02/05 03:46:05;;;;;;;22.65;2.85;;;;;;;;;;5052937;28;20501;-30
2023/02/05 03:48:38;;;;;;;44.90;4.18;;;;;;;;;;5052975;28;20842;-29
2023/02/05 03:51:24;;;;;;;36.75;3.47;;;;;;;;;;5053134;28;20036;-29
2023/02/05 03:53:51;;;;;;;23.70;2.55;;;;;;;;;;5072447;28;20032;-30
2023/02/05 03:56:20;;;;;;;20.50;2.25;;;;;;;;;;5071319;28;20032;-30
2023/02/05 03:58:49;;;;;;;23.17;2.40;;;;;;;;;;5072862;28;20035;-30
2023/02/05 04:01:17;;;;;;;13.43;2.03;;;;;;;;;;5072750;28;20033;-29
2023/02/05 04:03:44;;;;;;;23.90;1.92;;;;;;;;;;5070757;28;20033;-31
2023/02/05 04:06:12;;;;;;;29.05;2.65;;;;;;;;;;5069223;28;20032;-31
2023/02/05 04:08:42;;;;;;;25.67;2.45;;;;;;;;;;5072282;28;20025;-28
2023/02/05 04:11:10;;;;;;;30.35;3.50;;;;;;;;;;5072547;28;20032;-27
2023/02/05 04:13:38;;;;;;;41.63;3.40;;;;;;;;;;5072390;28;20024;-28
2023/02/05 04:16:05;;;;;;;34.72;3.00;;;;;;;;;;5072535;28;20040;-28
2023/02/05 04:18:32;;;;;;;18.20;1.95;;;;;;;;;;5072603;28;20024;-27
2023/02/05 04:20:59;;;;;;;23.23;2.00;;;;;;;;;;5071943;28;20063;-27
2023/02/05 04:23:26;;;;;;;14.07;1.83;;;;;;;;;;5071978;28;20053;-28
2023/02/05 04:25:54;;;;;;;14.13;1.48;;;;;;;;;;5070760;28;20415;-28
2023/02/05 04:28:21;;;;;;;22.05;1.90;;;;;;;;;;5072358;28;20033;-27
2023/02/05 04:30:48;;;;;;;11.15;1.50;;;;;;;;;;5068896;28;20036;-27
2023/02/05 04:33:15;;;;;;;19.58;1.70;;;;;;;;;;5068618;28;20498;-27
2023/02/05 04:35:42;;;;;;;20.92;2.35;;;;;;;;;;5054929;28;20029;-27
2023/02/05 04:38:09;;;;;;;29.40;2.33;;;;;;;;;;5052406;28;20106;-27
2023/02/05 04:40:36;;;;;;;24.85;2.30;;;;;;;;;;5052840;28;20116;-27
2023/02/05 04:43:03;;;;;;;25.98;2.60;;;;;;;;;;5052227;28;20054;-27
2023/02/05 04:45:32;;;;;;;40.80;3.83;;;;;;;;;;5052513;28;20029;-27
2023/02/05 04:47:59;;;;;;;35.08;2.97;;;;;;;;;;5052338;28;20043;-27
2023/02/05 04:50:26;;;;;;;35.55;3.88;;;;;;;;;;5052252;28;20395;-27
2023/02/05 04:52:53;;;;;;;25.73;2.55;;;;;;;;;;5052186;28;20024;-27
2023/02/05 04:55:21;;;;;;;20.95;2.08;;;;;;;;;;5052395;28;20063;-27
2023/02/05 04:57:47;;;;;;;16.67;1.65;;;;;;;;;;5052285;28;20100;-27
2023/02/05 05:00:15;;;;;;;30.00;2.60;;;;;;;;;;5052035;28;20044;-27
2023/02/05 05:02:42;;;;;;;22.70;2.88;;;;;;;;;;5051736;28;20029;-27
2023/02/05 05:05:10;;;;;;;37.45;3.83;;;;;;;;;;5051891;28;20503;-27
2023/02/05 05:07:38;;;;;;;42.42;3.55;;;;;;;;;;5052237;28;20399;-27
2023/02/05 05:10:08;;;;;;;38.72;3.88;;;;;;;;;;5051813;28;20036;-27
2023/02/05 05:12:36;;;;;;;28.48;2.45;;;;;;;;;;5051994;28;20041;-27
2023/02/05 05:15:03;;;;;;;25.33;3.38;;;;;;;;;;5051978;28;20025;-27
2023/02/05 05:17:31;;;;;;;60.15;4.68;;;;;;;;;;5051888;28;20484;-27
2023/02/05 05:19:58;;;;;;;53.67;4.63;;;;;;;;;;5051912;28;20031;-27
2023/02/05 05:22:25;;;;;;;49.17;4.05;;;;;;;;;;5051729;28;20060;-27
2023/02/05 05:24:51;;;;;;;62.47;4.82;;;;;;;;;;5051609;28;20048;-27
2023/02/05 05:27:18;;;;;;;56.58;4.20;;;;;;;;;;5051857;28;20028;-27
2023/02/05 05:29:46;;;;;;;39.65;3.58;;;;;;;;;;5051510;28;20032;-27
2023/02/05 05:32:13;;;;;;;39.70;3.05;;;;;;;;;;5051656;28;20066;-27
2023/02/05 05:34:40;;;;;;;29.73;2.33;;;;;;;;;;5051630;28;20450;-27
2023/02/05 05:37:07;;;;;;;23.52;2.30;;;;;;;;;;5051608;28;20060;-27
2023/02/05 05:45:04;;;;;;;11.63;1.30;;;;;;;;;;5051367;28;20464;-27
2023/02/05 05:47:31;;;;;;;8.23;1.33;;;;;;;;;;5051449;28;20045;-27
2023/02/05 05:49:58;;;;;;;7.40;1.17;;;;;;;;;;5051393;28;20126;-27
2023/02/05 05:52:25;;;;;;;14.30;1.80;;;;;;;;;;5051119;28;20029;-27
2023/02/05 05:54:52;;;;;;;17.08;1.63;;;;;;;;;;5051346;28;20036;-27
2023/02/05 05:57:20;;;;;;;16.83;2.67;;;;;;;;;;5051227;28;20049;-27
2023/02/05 05:59:46;;;;;;;31.88;2.65;;;;;;;;;;5051187;28;20055;-27
2023/02/05 06:02:13;;;;;;;20.15;2.20;;;;;;;;;;5061328;28;20089;-27
2023/02/05 06:04:40;;;;;;;22.80;2.50;;;;;;;;;;5071171;28;20372;-27
2023/02/05 06:07:07;;;;;;;32.67;3.30;;;;;;;;;;5071132;28;20056;-27
2023/02/05 06:09:34;;;;;;;14.75;1.88;;;;;;;;;;5071069;28;20107;-27
2023/02/05 06:12:01;;;;;;;30.88;2.50;;;;;;;;;;5070925;28;20024;-27
2023/02/05 06:14:28;;;;;;;23.88;2.35;;;;;;;;;;5071019;28;20078;-27
2023/02/05 06:16:55;;;;;;;30.77;2.75;;;;;;;;;;5070881;28;20033;-27
2023/02/05 06:19:23;;;;;;;28.15;2.72;;;;;;;;;;5071026;28;20032;-27
2023/02/05 06:21:50;;;;;;;19.00;1.83;;;;;;;;;;5070620;28;20033;-27
2023/02/05 06:24:17;;;;;;;19.00;1.58;;;;;;;;;;5070635;28;20836;-27
2023/02/05 06:26:44;;;;;;;9.73;1.50;;;;;;;;;;5071182;28;20036;-27
2023/02/05 06:29:10;;;;;;;20.38;1.58;;;;;;;;;;5070830;28;20376;-27
2023/02/05 06:31:37;;;;;;;53.30;4.15;;;;;;;;;;5071075;28;20390;-27
2023/02/05 06:34:04;;;;;;;85.38;6.82;;;;;;;;;;5070888;28;20028;-27
2023/02/05 06:36:31;;;;;;;55.25;4.80;;;;;;;;;;5070792;28;20024;-27
2023/02/05 06:38:58;;;;;;;26.50;3.15;;;;;;;;;;5070792;28;20111;-27
2023/02/05 06:41:25;;;;;;;22.85;2.10;;;;;;;;;;5070678;28;20024;-27
2023/02/05 06:43:52;;;;;;;30.48;2.65;;;;;;;;;;5070751;28;20029;-27
2023/02/05 06:46:19;;;;;;;29.98;3.00;;;;;;;;;;5070842;28;20028;-27
2023/02/05 06:48:46;;;;;;;24.40;2.75;;;;;;;;;;5070736;28;20021;-27
2023/02/05 06:51:13;;;;;;;20.33;2.05;;;;;;;;;;5070810;28;20505;-27
2023/02/05 06:53:40;;;;;;;18.05;1.95;;;;;;;;;;5070661;28;20024;-27
2023/02/05 06:56:07;;;;;;;11.50;1.65;;;;;;;;;;5070670;28;20079;-27
2023/02/05 06:58:34;;;;;;;19.73;2.20;;;;;;;;;;5070614;28;20150;-27
2023/02/05 07:01:02;;;;;;;15.88;1.67;;;;;;;;;;5070653;28;20021;-27
2023/02/05 07:03:29;;;;;;;20.33;2.13;;;;;;;;;;5069112;28;20024;-27
2023/02/05 07:05:56;;;;;;;13.00;1.75;;;;;;;;;;5070426;28;20058;-27
2023/02/05 07:08:22;;;;;;;14.43;1.52;;;;;;;;;;5070558;28;20127;-27
2023/02/05 07:10:49;;;;;;;14.02;2.20;;;;;;;;;;5070507;28;20035;-27
2023/02/05 07:13:16;;;;;;;14.40;1.73;;;;;;;;;;5072077;28;20017;-27
2023/02/05 07:15:43;;;;;;;11.25;1.55;;;;;;;;;;5074322;28;20513;-27
2023/02/05 07:18:10;;;;;;;20.70;1.90;;;;;;;;;;5074268;28;20052;-27
2023/02/05 07:20:37;;;;;;;16.40;1.58;;;;;;;;;;5074107;28;20444;-27
2023/02/05 07:23:04;;;;;;;23.52;2.40;;;;;;;;;;5073990;28;20028;-27
2023/02/05 07:25:40;;;;;;;18.13;1.75;;;;;;;;;;5073977;28;20086;-27
2023/02/05 07:28:08;;;;;;;45.17;3.97;;;;;;;;;;5074036;28;20107;-27
2023/02/05 07:30:35;;;;;;;57.83;5.60;;;;;;;;;;5073924;28;20040;-27
2023/02/05 07:33:02;;;;;;;35.35;3.20;;;;;;;;;;5073724;28;20501;-27
2023/02/05 07:35:30;;;;;;;27.70;3.33;;;;;;;;;;5074005;28;20035;-27
2023/02/05 07:37:58;;;;;;;10.90;1.60;;;;;;;;;;5073906;28;20071;-27
2023/02/05 07:40:25;;;;;;;26.73;2.28;;;;;;;;;;5072458;28;20068;-27
2023/02/05 07:42:52;;;;;;;16.85;2.08;;;;;;;;;;5073396;28;20094;-27
2023/02/05 07:45:18;;;;;;;7.85;1.42;;;;;;;;;;5073722;28;20097;-27
2023/02/05 07:47:48;;;;;;;11.48;1.13;;;;;;;;;;5073785;28;20082;-27
2023/02/05 07:50:15;;;;;;;10.85;1.30;;;;;;;;;;5073660;28;20040;-27
2023/02/05 07:52:42;;;;;;;12.90;1.33;;;;;;;;;;5073674;28;20047;-27
2023/02/05 07:55:09;;;;;;;18.10;1.90;;;;;;;;;;5073642;28;20147;-27
2023/02/05 07:57:37;;;;;;;30.55;2.20;;;;;;;;;;5073509;28;20027;-27
2023/02/05 08:00:04;;;;;;;23.10;2.60;;;;;;;;;;5073438;28;20021;-27
2023/02/05 08:02:31;;;;;;;25.17;2.60;;;;;;;;;;5073503;28;20031;-27
2023/02/05 08:04:58;;;;;;;18.02;2.22;;;;;;;;;;5071817;28;20454;-27
2023/02/05 08:07:25;;;;;;;17.77;1.80;;;;;;;;;;5073181;28;20024;-27
2023/02/05 08:09:52;;;;;;;19.77;1.83;;;;;;;;;;5071985;28;20025;-27
2023/02/05 08:12:19;;;;;;;9.98;1.40;;;;;;;;;;5073454;28;20394;-27
2023/02/05 08:14:46;;;;;;;13.55;1.30;;;;;;;;;;5073375;28;20480;-27
2023/02/05 08:17:13;;;;;;;19.33;1.35;;;;;;;;;;5073232;28;20024;-27
2023/02/05 08:19:40;;;;;;;15.50;2.05;;;;;;;;;;5073131;28;20024;-27
2023/02/05 08:22:07;;;;;;;21.23;2.05;;;;;;;;;;5072835;28;20111;-27
2023/02/05 08:24:34;;;;;;;19.95;1.88;;;;;;;;;;5072295;28;20432;-27
2023/02/05 08:27:01;;;;;;;10.95;1.55;;;;;;;;;;5073087;28;20020;-27
2023/02/05 08:29:28;;;;;;;11.65;1.88;;;;;;;;;;5072934;28;20123;-27
2023/02/05 08:31:56;;;;;;;15.43;1.85;;;;;;;;;;5072722;28;20074;-27
2023/02/05 08:34:23;;;;;;;18.50;2.20;;;;;;;;;;5072841;28;20020;-27
2023/02/05 08:36:50;;;;;;;18.77;1.67;;;;;;;;;;5072779;28;20509;-27
2023/02/05 08:39:17;;;;;;;23.48;1.73;;;;;;;;;;5071272;28;20035;-27
2023/02/05 08:41:44;;;;;;;19.02;2.03;;;;;;;;;;5072482;28;20028;-27
2023/02/05 08:44:10;;;;;;;30.85;2.13;;;;;;;;;;5072537;28;20036;-27
2023/02/05 08:46:39;;;;;;;12.07;1.50;;;;;;;;;;5072567;28;20031;-27
2023/02/05 08:49:06;;;;;;;11.82;1.40;;;;;;;;;;5072439;28;20402;-27
2023/02/05 08:51:34;;;;;;;14.45;1.30;;;;;;;;;;5072297;28;20394;-27
2023/02/05 08:54:01;;;;;;;8.77;1.02;;;;;;;;;;5072686;28;20040;-27
2023/02/05 08:56:28;;;;;;;21.38;1.50;;;;;;;;;;5072436;28;20094;-26
2023/02/05 08:58:56;;;;;;;17.75;1.88;;;;;;;;;;5072309;28;20025;-27
2023/02/05 09:01:23;;;;;;;21.67;2.30;;;;;;;;;;5072031;28;20407;-26
2023/02/05 09:03:50;;;;;;;49.22;4.18;;;;;;;;;;5072183;28;20043;-27
2023/02/05 09:06:17;;;;;;;24.45;2.35;;;;;;;;;;5072028;28;20051;-26
2023/02/05 09:08:44;;;;;;;8.07;0.90;;;;;;;;;;5072010;28;20040;-27
2023/02/05 09:11:12;;;;;;;5.80;0.90;;;;;;;;;;5072009;28;20028;-27
2023/02/05 09:13:40;;;;;;;16.25;1.65;;;;;;;;;;5071877;28;20123;-27
2023/02/05 09:16:10;;;;;;;23.30;1.77;;;;;;;;;;5072106;28;20032;-27
2023/02/05 09:18:37;;;;;;;9.05;0.93;;;;;;;;;;5071958;28;20028;-27
2023/02/05 09:21:06;;;;;;;8.57;1.25;;;;;;;;;;5071734;28;20029;-27
2023/02/05 09:23:33;;;;;;;13.13;2.00;;;;;;;;;;5071649;28;20052;-27
2023/02/05 09:26:00;;;;;;;16.95;1.83;;;;;;;;;;5071747;28;20036;-27
2023/02/05 09:28:27;;;;;;;6.15;1.13;;;;;;;;;;5071765;28;20024;-27
2023/02/05 09:30:54;;;;;;;9.77;1.63;;;;;;;;;;5071636;28;20039;-27
2023/02/05 09:33:21;;;;;;;16.45;1.48;;;;;;;;;;5071609;28;20017;-27
2023/02/05 09:35:48;;;;;;;14.70;1.60;;;;;;;;;;5070834;28;20077;-27
2023/02/05 09:38:17;;;;;;;10.00;1.85;;;;;;;;;;5071452;28;20024;-27
2023/02/05 09:40:59;;;;;;;15.15;1.80;;;;;;;;;;5071474;28;20070;-27
2023/02/05 09:43:26;;;;;;;8.07;1.30;;;;;;;;;;5071486;28;20025;-26
2023/02/05 09:45:56;;;;;;;7.82;1.30;;;;;;;;;;5071400;28;20081;-27
2023/02/05 09:48:42;;;;;;;8.27;1.15;;;;;;;;;;5071488;28;20031;-26
2023/02/05 09:51:12;;;;;;;17.33;2.05;;;;;;;;;;5071592;28;20602;-27
2023/02/05 09:53:44;;;;;;;127.10;10.00;;;;;;;;;;5071364;28;20024;-27
2023/02/05 09:56:12;;;;;;;192.77;15.07;;;;;;;;;;5071418;28;20025;-26
2023/02/05 09:58:48;;;;;;;139.32;11.18;;;;;;;;;;5071325;28;20103;-26
2023/02/05 10:01:14;;;;;;;94.35;8.25;;;;;;;;;;5071159;28;20418;-27
2023/02/05 10:03:44;;;;;;;93.80;8.02;;;;;;;;;;5071329;28;20490;-26
2023/02/05 10:06:10;;;;;;;120.60;9.65;;;;;;;;;;5071071;28;20079;-26
2023/02/05 10:08:44;;;;;;;92.63;8.32;;;;;;;;;;5071193;28;20052;-27
2023/02/05 10:11:29;;;;;;;81.38;6.60;;;;;;;;;;5070930;28;20382;-27
2023/02/05 10:14:02;;;;;;;50.22;4.80;;;;;;;;;;5071180;28;20031;-26
2023/02/05 10:16:35;;;;;;;58.15;5.20;;;;;;;;;;5071057;28;20025;-26
2023/02/05 10:19:10;;;;;;;100.90;7.38;;;;;;;;;;5071173;28;20100;-26
2023/02/05 10:21:40;;;;;;;64.28;5.53;;;;;;;;;;5070826;28;20035;-27
2023/02/05 10:24:17;;;;;;;45.90;4.53;;;;;;;;;;5070722;28;20051;-27
2023/02/05 10:26:46;;;;;;;46.20;4.05;;;;;;;;;;5070906;28;20115;-27
2023/02/05 10:29:19;;;;;;;28.52;2.60;;;;;;;;;;5071060;28;20059;-27
2023/02/05 10:32:09;;;;;;;16.58;2.20;;;;;;;;;;5070768;28;20025;-27
2023/02/05 10:34:42;;;;;;;16.10;1.90;;;;;;;;;;5070912;28;20040;-26
2023/02/05 10:37:14;;;;;;;18.55;2.03;;;;;;;;;;5070998;28;20036;-27
2023/02/05 10:39:42;;;;;;;10.57;1.67;;;;;;;;;;5070842;28;20025;-26
2023/02/05 10:42:17;;;;;;;22.98;2.10;;;;;;;;;;5070682;28;20036;-27
2023/02/05 10:44:46;;;;;;;32.85;3.25;;;;;;;;;;5070740;28;20033;-26
2023/02/05 10:47:39;;;;;;;32.40;3.15;;;;;;;;;;5072367;28;20209;-27
2023/02/05 10:50:38;;;;;;;21.42;2.47;;;;;;;;;;5036035;28;20032;-27
2023/02/05 10:53:06;;;;;;;19.08;2.38;;;;;;;;;;5030625;28;20040;-27
2023/02/05 10:55:33;;;;;;;19.77;2.70;;;;;;;;;;5074783;28;20464;-27
2023/02/05 10:58:02;;;;;;;16.23;1.70;;;;;;;;;;5074671;28;20777;-27
2023/02/05 11:00:29;;;;;;;10.32;1.42;;;;;;;;;;5074535;28;20034;-27
2023/02/05 11:03:00;;;;;;;13.20;1.02;;;;;;;;;;5074342;28;20028;-27
2023/02/05 11:05:38;;;;;;;9.27;1.30;;;;;;;;;;5074338;28;20111;-26
2023/02/05 11:08:05;;;;;;;6.30;1.05;;;;;;;;;;5074488;28;20045;-27
2023/02/05 11:10:34;;;;;;;6.90;1.20;;;;;;;;;;5074401;28;20095;-27
2023/02/05 11:13:21;;;;;;;5.88;1.13;;;;;;;;;;5074237;28;20051;-27
2023/02/05 11:15:56;;;;;;;5.00;1.00;;;;;;;;;;5074278;28;20032;-27
2023/02/05 11:18:24;;;;;;;9.50;1.27;;;;;;;;;;5074114;28;20762;-27
2023/02/05 11:21:01;;;;;;;5.38;1.10;;;;;;;;;;5074211;28;20059;-27
2023/02/05 11:23:38;;;;;;;6.88;1.08;;;;;;;;;;5073974;28;20132;-27
2023/02/05 11:26:08;;;;;;;9.77;1.10;;;;;;;;;;5073911;28;20086;-27
2023/02/05 11:28:36;;;;;;;9.40;1.23;;;;;;;;;;5074092;28;20079;-27
2023/02/05 11:31:21;;;;;;;5.70;0.95;;;;;;;;;;5073981;28;20024;-27
2023/02/05 11:33:49;;;;;;;9.52;1.10;;;;;;;;;;5073735;28;20025;-28
2023/02/05 11:36:22;;;;;;;10.95;1.90;;;;;;;;;;5073892;28;20040;-27
2023/02/05 11:38:49;;;;;;;10.80;1.60;;;;;;;;;;5073779;28;20490;-27
2023/02/05 11:41:29;;;;;;;6.70;1.10;;;;;;;;;;5073522;28;20483;-27
2023/02/05 11:43:57;;;;;;;24.63;1.67;;;;;;;;;;5073682;28;20021;-27
2023/02/05 11:46:25;;;;;;;16.65;2.05;;;;;;;;;;5073753;28;20040;-27
2023/02/05 11:49:02;;;;;;;21.88;1.42;;;;;;;;;;5073585;28;20024;-27
2023/02/05 11:51:35;;;;;;;10.40;1.20;;;;;;;;;;5073568;28;20056;-27
2023/02/05 11:54:15;;;;;;;12.10;1.40;;;;;;;;;;5073335;28;20047;-27
2023/02/05 11:56:42;;;;;;;14.15;1.50;;;;;;;;;;5073521;28;20030;-29
2023/02/05 11:59:22;;;;;;;11.63;1.40;;;;;;;;;;5072715;28;20032;-27
2023/02/05 12:01:49;;;;;;;19.63;2.30;;;;;;;;;;5073232;28;20191;-28
2023/02/05 12:04:20;;;;;;;19.90;2.33;;;;;;;;;;5073246;28;20117;-27
2023/02/05 12:06:50;;;;;;;16.80;2.40;;;;;;;;;;5073332;28;20025;-28
2023/02/05 12:09:24;;;;;;;28.73;3.63;;;;;;;;;;5073252;28;20111;-28
2023/02/05 12:12:02;;;;;;;19.88;2.50;;;;;;;;;;5073138;28;20474;-27
2023/02/05 12:14:32;;;;;;;18.05;2.17;;;;;;;;;;5073036;28;20044;-27
2023/02/05 12:17:17;;;;;;;23.23;2.20;;;;;;;;;;5072929;28;20431;-27
2023/02/05 12:19:47;;;;;;;18.25;2.10;;;;;;;;;;5073111;28;20113;-28
2023/02/05 12:22:20;;;;;;;21.63;2.42;;;;;;;;;;5072718;28;20048;-27
2023/02/05 12:25:06;;;;;;;11.38;1.50;;;;;;;;;;5072665;28;20097;-28
2023/02/05 12:27:33;;;;;;;14.93;2.22;;;;;;;;;;5073003;28;20040;-28
2023/02/05 12:30:12;;;;;;;18.58;2.38;;;;;;;;;;5072911;28;20058;-28
2023/02/05 12:32:48;;;;;;;14.52;1.85;;;;;;;;;;5072515;28;20032;-28
2023/02/05 12:35:27;;;;;;;20.90;2.40;;;;;;;;;;5072761;28;20035;-28
2023/02/05 12:37:54;;;;;;;14.13;1.67;;;;;;;;;;5072749;28;20039;-28
2023/02/05 12:40:21;;;;;;;14.38;2.10;;;;;;;;;;5072704;28;20498;-27
2023/02/05 12:43:01;;;;;;;11.15;1.73;;;;;;;;;;5072407;28;20111;-28
2023/02/05 12:45:30;;;;;;;34.58;3.03;;;;;;;;;;5072408;28;20792;-28
2023/02/05 12:48:16;;;;;;;32.13;3.58;;;;;;;;;;5072449;28;20035;-28
2023/02/05 12:50:53;;;;;;;48.20;4.65;;;;;;;;;;5072508;28;20115;-27
2023/02/05 12:53:35;;;;;;;39.38;3.85;;;;;;;;;;5072348;28;20033;-27
2023/02/05 12:56:22;;;;;;;28.80;3.60;;;;;;;;;;5072314;28;20107;-28
2023/02/05 12:58:54;;;;;;;31.27;3.17;;;;;;;;;;5072227;28;20839;-28
2023/02/05 13:01:23;;;;;;;24.20;2.60;;;;;;;;;;5072154;28;20158;-28
2023/02/05 13:04:13;;;;;;;29.23;3.58;;;;;;;;;;5070614;28;20368;-28
2023/02/05 13:06:43;;;;;;;64.25;5.55;;;;;;;;;;5071991;28;20059;-27
2023/02/05 13:09:20;;;;;;;58.88;5.65;;;;;;;;;;5072110;28;20025;-27
2023/02/05 13:11:54;;;;;;;44.28;5.72;;;;;;;;;;5072014;28;20090;-28
2023/02/05 13:14:23;;;;;;;44.05;4.00;;;;;;;;;;5071950;28;20554;-28
2023/02/05 13:16:55;;;;;;;61.08;4.70;;;;;;;;;;5071935;28;20390;-27
2023/02/05 13:19:25;;;;;;;48.08;5.10;;;;;;;;;;5071958;28;20486;-28
2023/02/05 13:30:39;;;;;;;41.08;3.85;;;;;;;;;;5070823;28;20521;-28
2023/02/05 13:33:07;;;;;;;48.13;4.13;;;;;;;;;;5071455;28;20028;-28
2023/02/05 13:35:50;;;;;;;55.15;4.50;;;;;;;;;;5071477;28;20290;-27
2023/02/05 13:38:35;;;;;;;46.30;4.35;;;;;;;;;;5070764;28;20103;-27
2023/02/05 13:41:02;;;;;;;23.50;3.30;;;;;;;;;;5061343;28;20487;-28
2023/02/05 13:43:34;;;;;;;29.38;3.38;;;;;;;;;;5060385;28;20062;-27
2023/02/05 13:46:15;;;;;;;35.70;3.58;;;;;;;;;;5060753;28;20486;-28
2023/02/05 13:48:45;;;;;;;35.22;4.53;;;;;;;;;;5059370;28;20039;-27
2023/02/05 13:51:12;;;;;;;33.75;4.40;;;;;;;;;;5059714;28;20063;-28
2023/02/05 13:53:58;;;;;;;36.03;4.13;;;;;;;;;;5060835;28;20051;-28
2023/02/05 13:56:43;;;;;;;37.40;3.50;;;;;;;;;;5054401;28;20147;-27
2023/02/05 13:59:22;;;;;;;39.70;3.70;;;;;;;;;;5050398;28;20138;-27
2023/02/05 14:01:51;;;;;;;31.00;3.83;;;;;;;;;;5050090;28;20032;-27
2023/02/05 14:04:26;;;;;;;45.83;5.20;;;;;;;;;;5050677;28;20021;-28
2023/02/05 14:07:00;;;;;;;50.92;4.97;;;;;;;;;;5050244;28;20537;-27
2023/02/05 14:09:43;;;;;;;62.97;5.25;;;;;;;;;;5050048;28;20037;-27
2023/02/05 14:12:21;;;;;;;49.45;4.78;;;;;;;;;;5050047;28;20522;-27
2023/02/05 14:15:08;;;;;;;43.97;5.88;;;;;;;;;;5050105;28;20021;-28
2023/02/05 14:17:37;;;;;;;50.17;5.90;;;;;;;;;;5059799;28;20052;-27
2023/02/05 14:20:24;;;;;;;49.10;5.45;;;;;;;;;;5058496;28;20054;-28
2023/02/05 14:22:52;;;;;;;39.58;4.43;;;;;;;;;;5056664;28;20600;-29
2023/02/05 14:25:37;;;;;;;42.33;5.13;;;;;;;;;;5078739;22;20135;-28
2023/02/05 14:28:17;;;;;;;38.58;4.43;;;;;;;;;;5058470;28;20413;-28
2023/02/05 14:30:44;;;;;;;47.10;5.03;;;;;;;;;;5060448;28;20107;-29
2023/02/05 14:33:34;;;;;;;48.63;5.28;;;;;;;;;;5058878;28;20056;-28
2023/02/05 14:39:03;;;;;;;39.33;5.10;;;;;;;;;;5060216;28;20020;-28
2023/02/05 14:41:32;;;;;;;49.00;5.47;;;;;;;;;;5058779;28;20029;-28
2023/02/05 14:44:06;;;;;;;35.63;4.93;;;;;;;;;;5066459;28;20028;-29
2023/02/05 14:46:34;;;;;;;36.38;4.60;;;;;;;;;;5058372;28;20045;-28
2023/02/05 14:49:02;;;;;;;33.58;4.60;;;;;;;;;;5048830;28;20063;-28
2023/02/05 14:51:32;;;;;;;36.92;4.40;;;;;;;;;;5061614;28;20024;-28
2023/02/05 14:54:01;;;;;;;24.60;3.78;;;;;;;;;;5068890;28;20412;-28
2023/02/05 14:56:32;;;;;;;34.55;4.72;;;;;;;;;;5068429;28;20013;-28
2023/02/05 14:59:06;;;;;;;28.55;4.68;;;;;;;;;;5050743;28;20378;-28
2023/02/05 15:01:36;;;;;;;33.72;4.05;;;;;;;;;;5057899;28;20025;-28
2023/02/05 15:04:04;;;;;;;34.45;5.40;;;;;;;;;;5048326;28;20045;-28